Southern Sonoma County Latest

20 Stations

15 Minute Data
as of 5/5/26 6:09 PM PDT
Station Date Time Temp (°F) RH (%) Dew Pt (°F) Wind Spd (mph) Wind Dir (°) Wind Gust (mph) Latest Rain (In) Daily Rain (In) Daily Min Temp (°F) Daily Max Temp (°F)
Upper Rincon Valley 5/5/26 1800 58.0   6.9 75   21 50.3   0.2 2.1   0.2 SSW | 192 6.4   1.9 0.00 0.00 49.1   3.6 60.1   1.7
Lower Bennett Valley 5/5/26 1800 59.6   6.1 73   22 51.1   1.0 4.1   2.6 SW | 214 9.6   6.6 0.00 0.01 50.9   10.7 63.6   0.9
Kenwood (Wildwood) 5/5/26 1800 60.5   7.0 73   18 51.7   0.7 5.5   2.1 NNW | 339 11.7   5.3 0.00 0.01 51.6   7.6 63.7   1.3
Crane Creek (Ranch 62) 5/5/26 1800 60.6   6.7 71   23 51.1   1.1 2.2   0.1 SW | 219 6.0   1.9 0.00 0.01 51.8   6.3 65.4   0.7
Rohnert Park-West (Stony Point) 5/5/26 1800 59.2   4.9 76   17 51.7   0.5 7.3   6.6 WSW | 251 14.8   10.7 0.00 0.00 52.3   9.1 64.9   0.4
Rice-Spivak Vineyard 5/5/26 1800 59.1   5.5 - - - - - - - 51.8   10.5 68.2   1.9
Cartograph Wines Base 5/5/26 1800 57.7   4.7 81   14 52.0   0.3 8.8   5.3 SW | 231 16.0   9.5 0.00 0.01 51.6   4.1 64.0   2.0
Cartograph Wines Remote 5/5/26 1800 58.5   4.6 - - - - - - - 51.8   5.5 65.1   0.3
Penngrove (Asellus) 5/5/26 1800 60.6   6.6 69   22 50.5   1.2 4.7   3.6 WSW | 253 9.7   7.1 0.00 0.01 51.6   10.2 63.9   2.8
Sonoma Valley (Bedrock) 5/5/26 1800 62.0   9.0 66   23 50.6   0.5 - - - 0.00 0.02 50.5   7.5 67.7   3.3
Sonoma-West (Arnold) 5/5/26 1800 60.4   5.7 69   14 50.4   0.7 6.1   1.4 W | 262 13.6   5.2 0.00 0.00 52.3   10.2 66.1   0.1
Sonoma Valley HS 5/5/26 1800 60.9   6.0 75   19 53.0   0.2 4.1   3.0 WSW | 245 8.0   4.9 0.00 0.01 52.0   8.5 65.3   0.5
Sonoma East (Bundschu01) 5/5/26 1800 61.5   6.1 69   14 51.2   0.8 5.9   4.0 W | 272 13.4   8.3 0.00 0.03 52.3   12.0 65.9   0.1
Sonoma-SE (Napoli) 5/5/26 1800 61.6   6.2 68   14 51.0   1.0 6.3   6.3 WSW | 253 12.5   12.5 0.00 0.02 52.2   10.1 66.7   0.0
Schellville (Sasaki) 2/7/26 1900 53.4   2.2 88   10 49.9   1.0 3.3   1.8 SW | 225 5.8   4.0 0.00 0.00 47.0   0.8 62.8   8.4
Petaluma (Ranch 10) 5/5/26 1800 61.7   7.1 68   23 50.9   1.1 6.6   2.4 W | 277 11.9   4.4 0.00 0.02 52.4   11.5 68.0   0.4
Carneros (Ranch 71) 5/5/26 1800 60.4   6.7 71   14 51.1   1.8 11.1   6.2 W | 264 17.6   9.8 0.00 0.03 51.4   4.3 64.8   0.1
Ricci Vineyards (Carneros) 5/5/26 1800 61.4   6.7 70   19 51.5   0.0 7.8   1.2 W | 278 12.6   2.2 0.00 0.04 52.1   10.1 66.3   0.4
Carneros Upper (Ranch 81) 5/5/26 1800 60.3   6.6 70   13 50.6   1.8 12.7   5.2 WSW | 258 19.3   8.7 - - 51.4   4.6 65.2   0.7
Carneros Lower (Ranch 81) 5/5/26 1800 62.8   8.4 69   16 52.7   2.6 0.6   1.0 S | 180 3.1   1.5 0.00 0.03 52.0   9.4 68.4   0.1
Max     62.8 81 53.0 12.7 - 19.3 0.00 0.04 52.4 68.4
Avg     60.4 71 51.3 6.0 - 11.6 0.00 - - -
Min     57.7 66 50.3 0.6 - 3.1 0.00 0.00 49.1 60.1